sensor_id;sensor_type;location;lat;lon;timestamp;P1;durP1;ratioP1;P2;durP2;ratioP2
8572;SDS011;4324;42.012;24.872;2022-11-20T00:01:04;11.47;;;9.93;;
8572;SDS011;4324;42.012;24.872;2022-11-20T00:03:31;29.10;;;24.67;;
8572;SDS011;4324;42.012;24.872;2022-11-20T00:05:59;35.73;;;27.93;;
8572;SDS011;4324;42.012;24.872;2022-11-20T00:08:26;37.90;;;29.00;;
8572;SDS011;4324;42.012;24.872;2022-11-20T00:10:55;34.37;;;29.67;;
8572;SDS011;4324;42.012;24.872;2022-11-20T00:13:22;39.00;;;30.33;;
8572;SDS011;4324;42.012;24.872;2022-11-20T00:15:56;33.43;;;26.73;;
8572;SDS011;4324;42.012;24.872;2022-11-20T00:18:23;31.10;;;26.30;;
8572;SDS011;4324;42.012;24.872;2022-11-20T00:20:50;31.47;;;25.83;;
8572;SDS011;4324;42.012;24.872;2022-11-20T00:23:17;29.77;;;24.83;;
8572;SDS011;4324;42.012;24.872;2022-11-20T00:25:44;27.13;;;22.30;;
8572;SDS011;4324;42.012;24.872;2022-11-20T00:28:12;23.57;;;19.67;;
8572;SDS011;4324;42.012;24.872;2022-11-20T00:30:41;21.70;;;17.50;;
8572;SDS011;4324;42.012;24.872;2022-11-20T00:33:08;18.23;;;16.00;;
8572;SDS011;4324;42.012;24.872;2022-11-20T00:35:35;19.20;;;16.20;;
8572;SDS011;4324;42.012;24.872;2022-11-20T00:38:02;21.33;;;16.73;;
8572;SDS011;4324;42.012;24.872;2022-11-20T00:40:29;16.03;;;13.60;;
8572;SDS011;4324;42.012;24.872;2022-11-20T00:42:56;19.17;;;16.77;;
8572;SDS011;4324;42.012;24.872;2022-11-20T00:45:24;18.80;;;15.03;;
8572;SDS011;4324;42.012;24.872;2022-11-20T00:47:51;20.27;;;15.17;;
8572;SDS011;4324;42.012;24.872;2022-11-20T00:50:18;18.37;;;14.23;;
8572;SDS011;4324;42.012;24.872;2022-11-20T00:52:45;13.07;;;10.83;;
8572;SDS011;4324;42.012;24.872;2022-11-20T00:55:12;14.37;;;11.73;;
8572;SDS011;4324;42.012;24.872;2022-11-20T00:57:39;15.50;;;13.70;;
8572;SDS011;4324;42.012;24.872;2022-11-20T01:00:06;16.07;;;13.20;;
8572;SDS011;4324;42.012;24.872;2022-11-20T01:02:36;14.37;;;12.10;;
8572;SDS011;4324;42.012;24.872;2022-11-20T01:05:03;14.37;;;11.87;;
8572;SDS011;4324;42.012;24.872;2022-11-20T01:07:30;15.10;;;10.87;;
8572;SDS011;4324;42.012;24.872;2022-11-20T01:09:58;13.70;;;11.73;;
8572;SDS011;4324;42.012;24.872;2022-11-20T01:12:25;11.97;;;9.87;;
8572;SDS011;4324;42.012;24.872;2022-11-20T01:14:52;13.63;;;8.87;;
8572;SDS011;4324;42.012;24.872;2022-11-20T01:17:19;12.43;;;10.00;;
8572;SDS011;4324;42.012;24.872;2022-11-20T01:19:49;8.87;;;7.97;;
8572;SDS011;4324;42.012;24.872;2022-11-20T01:22:16;8.83;;;7.60;;
8572;SDS011;4324;42.012;24.872;2022-11-20T01:24:43;10.87;;;7.17;;
8572;SDS011;4324;42.012;24.872;2022-11-20T01:27:10;10.10;;;8.43;;
8572;SDS011;4324;42.012;24.872;2022-11-20T01:29:37;15.63;;;13.30;;
8572;SDS011;4324;42.012;24.872;2022-11-20T01:32:04;11.77;;;9.27;;
8572;SDS011;4324;42.012;24.872;2022-11-20T01:34:31;13.23;;;11.83;;
8572;SDS011;4324;42.012;24.872;2022-11-20T01:36:59;14.67;;;12.03;;
8572;SDS011;4324;42.012;24.872;2022-11-20T01:39:26;16.13;;;11.93;;
8572;SDS011;4324;42.012;24.872;2022-11-20T01:41:54;14.43;;;11.90;;
8572;SDS011;4324;42.012;24.872;2022-11-20T01:44:49;14.13;;;9.97;;
8572;SDS011;4324;42.012;24.872;2022-11-20T01:47:20;10.30;;;8.37;;
8572;SDS011;4324;42.012;24.872;2022-11-20T01:49:52;8.83;;;7.80;;
8572;SDS011;4324;42.012;24.872;2022-11-20T01:52:25;9.40;;;7.80;;
8572;SDS011;4324;42.012;24.872;2022-11-20T01:54:58;10.43;;;7.67;;
8572;SDS011;4324;42.012;24.872;2022-11-20T01:57:28;10.63;;;7.10;;
8572;SDS011;4324;42.012;24.872;2022-11-20T01:59:59;9.63;;;8.23;;
8572;SDS011;4324;42.012;24.872;2022-11-20T02:02:29;10.37;;;8.37;;
8572;SDS011;4324;42.012;24.872;2022-11-20T02:04:57;11.70;;;8.97;;
8572;SDS011;4324;42.012;24.872;2022-11-20T02:07:32;12.00;;;9.47;;
8572;SDS011;4324;42.012;24.872;2022-11-20T02:09:59;11.47;;;9.97;;
8572;SDS011;4324;42.012;24.872;2022-11-20T02:12:26;12.73;;;9.60;;
8572;SDS011;4324;42.012;24.872;2022-11-20T02:15:11;13.43;;;12.00;;
8572;SDS011;4324;42.012;24.872;2022-11-20T02:17:38;17.87;;;12.93;;
8572;SDS011;4324;42.012;24.872;2022-11-20T02:20:06;18.43;;;12.57;;
8572;SDS011;4324;42.012;24.872;2022-11-20T02:22:35;16.23;;;11.90;;
8572;SDS011;4324;42.012;24.872;2022-11-20T02:25:15;13.47;;;10.90;;
8572;SDS011;4324;42.012;24.872;2022-11-20T02:27:42;17.10;;;9.73;;
8572;SDS011;4324;42.012;24.872;2022-11-20T02:30:09;8.23;;;7.33;;
8572;SDS011;4324;42.012;24.872;2022-11-20T02:32:37;11.00;;;6.57;;
8572;SDS011;4324;42.012;24.872;2022-11-20T02:35:08;9.23;;;7.97;;
8572;SDS011;4324;42.012;24.872;2022-11-20T02:37:36;13.27;;;7.47;;
8572;SDS011;4324;42.012;24.872;2022-11-20T02:40:06;9.90;;;5.90;;
8572;SDS011;4324;42.012;24.872;2022-11-20T02:42:35;8.20;;;6.40;;
8572;SDS011;4324;42.012;24.872;2022-11-20T02:45:02;8.57;;;6.03;;
8572;SDS011;4324;42.012;24.872;2022-11-20T02:47:29;7.40;;;5.43;;
8572;SDS011;4324;42.012;24.872;2022-11-20T02:49:56;7.77;;;4.90;;
8572;SDS011;4324;42.012;24.872;2022-11-20T02:52:24;7.13;;;4.87;;
8572;SDS011;4324;42.012;24.872;2022-11-20T02:54:56;4.90;;;3.50;;
8572;SDS011;4324;42.012;24.872;2022-11-20T02:57:23;11.77;;;5.17;;
8572;SDS011;4324;42.012;24.872;2022-11-20T02:59:51;5.97;;;4.50;;
8572;SDS011;4324;42.012;24.872;2022-11-20T03:02:18;7.40;;;4.70;;
8572;SDS011;4324;42.012;24.872;2022-11-20T03:04:45;6.47;;;4.90;;
8572;SDS011;4324;42.012;24.872;2022-11-20T03:07:12;7.63;;;5.10;;
8572;SDS011;4324;42.012;24.872;2022-11-20T03:09:39;6.23;;;4.37;;
8572;SDS011;4324;42.012;24.872;2022-11-20T03:12:06;8.50;;;5.73;;
8572;SDS011;4324;42.012;24.872;2022-11-20T03:14:34;8.73;;;5.90;;
8572;SDS011;4324;42.012;24.872;2022-11-20T03:17:02;7.53;;;5.80;;
8572;SDS011;4324;42.012;24.872;2022-11-20T03:19:29;7.50;;;5.80;;
8572;SDS011;4324;42.012;24.872;2022-11-20T03:21:56;9.07;;;5.87;;
8572;SDS011;4324;42.012;24.872;2022-11-20T03:24:23;11.90;;;7.03;;
8572;SDS011;4324;42.012;24.872;2022-11-20T03:26:50;8.50;;;7.00;;
8572;SDS011;4324;42.012;24.872;2022-11-20T03:29:17;8.50;;;6.50;;
8572;SDS011;4324;42.012;24.872;2022-11-20T03:31:44;6.47;;;4.60;;
8572;SDS011;4324;42.012;24.872;2022-11-20T03:34:12;5.77;;;4.10;;
8572;SDS011;4324;42.012;24.872;2022-11-20T03:36:40;5.33;;;3.77;;
8572;SDS011;4324;42.012;24.872;2022-11-20T03:39:08;2.93;;;2.63;;
8572;SDS011;4324;42.012;24.872;2022-11-20T03:41:36;2.90;;;2.70;;
8572;SDS011;4324;42.012;24.872;2022-11-20T03:44:05;6.03;;;2.67;;
8572;SDS011;4324;42.012;24.872;2022-11-20T03:46:33;3.93;;;3.50;;
8572;SDS011;4324;42.012;24.872;2022-11-20T03:49:00;3.57;;;2.67;;
8572;SDS011;4324;42.012;24.872;2022-11-20T03:51:29;2.70;;;2.30;;
8572;SDS011;4324;42.012;24.872;2022-11-20T03:53:58;4.07;;;2.80;;
8572;SDS011;4324;42.012;24.872;2022-11-20T03:56:27;5.40;;;2.97;;
8572;SDS011;4324;42.012;24.872;2022-11-20T03:58:56;7.50;;;2.50;;
8572;SDS011;4324;42.012;24.872;2022-11-20T04:01:23;4.43;;;3.20;;
8572;SDS011;4324;42.012;24.872;2022-11-20T04:03:52;4.23;;;3.07;;
8572;SDS011;4324;42.012;24.872;2022-11-20T04:06:21;6.10;;;3.03;;
8572;SDS011;4324;42.012;24.872;2022-11-20T04:08:50;4.90;;;2.90;;
8572;SDS011;4324;42.012;24.872;2022-11-20T04:11:18;10.00;;;2.97;;
8572;SDS011;4324;42.012;24.872;2022-11-20T04:13:47;6.17;;;3.13;;
8572;SDS011;4324;42.012;24.872;2022-11-20T04:16:15;4.23;;;2.70;;
8572;SDS011;4324;42.012;24.872;2022-11-20T04:18:43;5.50;;;3.30;;
8572;SDS011;4324;42.012;24.872;2022-11-20T04:21:10;6.23;;;3.03;;
8572;SDS011;4324;42.012;24.872;2022-11-20T04:23:37;4.83;;;3.00;;
8572;SDS011;4324;42.012;24.872;2022-11-20T04:26:06;8.47;;;3.27;;
8572;SDS011;4324;42.012;24.872;2022-11-20T04:28:35;2.90;;;2.00;;
8572;SDS011;4324;42.012;24.872;2022-11-20T04:31:03;10.37;;;3.30;;
8572;SDS011;4324;42.012;24.872;2022-11-20T04:33:32;5.00;;;3.10;;
8572;SDS011;4324;42.012;24.872;2022-11-20T04:36:00;7.13;;;2.93;;
8572;SDS011;4324;42.012;24.872;2022-11-20T04:38:28;4.80;;;2.87;;
8572;SDS011;4324;42.012;24.872;2022-11-20T04:40:58;18.43;;;16.03;;
8572;SDS011;4324;42.012;24.872;2022-11-20T04:43:27;21.13;;;17.60;;
8572;SDS011;4324;42.012;24.872;2022-11-20T04:45:54;19.57;;;16.63;;
8572;SDS011;4324;42.012;24.872;2022-11-20T04:48:22;20.43;;;14.33;;
8572;SDS011;4324;42.012;24.872;2022-11-20T04:50:50;9.07;;;7.83;;
8572;SDS011;4324;42.012;24.872;2022-11-20T04:53:19;6.27;;;5.20;;
8572;SDS011;4324;42.012;24.872;2022-11-20T04:55:48;22.77;;;16.93;;
8572;SDS011;4324;42.012;24.872;2022-11-20T04:58:15;24.97;;;19.13;;
8572;SDS011;4324;42.012;24.872;2022-11-20T05:00:44;27.73;;;19.73;;
8572;SDS011;4324;42.012;24.872;2022-11-20T05:03:11;22.00;;;18.23;;
8572;SDS011;4324;42.012;24.872;2022-11-20T05:05:37;21.13;;;18.23;;
8572;SDS011;4324;42.012;24.872;2022-11-20T05:08:04;24.50;;;19.00;;
8572;SDS011;4324;42.012;24.872;2022-11-20T05:10:35;24.10;;;18.70;;
8572;SDS011;4324;42.012;24.872;2022-11-20T05:13:02;23.73;;;19.97;;
8572;SDS011;4324;42.012;24.872;2022-11-20T05:15:29;24.37;;;19.30;;
8572;SDS011;4324;42.012;24.872;2022-11-20T05:17:57;25.57;;;19.70;;
8572;SDS011;4324;42.012;24.872;2022-11-20T05:20:24;23.10;;;20.40;;
8572;SDS011;4324;42.012;24.872;2022-11-20T05:22:51;25.50;;;20.30;;
8572;SDS011;4324;42.012;24.872;2022-11-20T05:25:18;28.37;;;21.40;;
8572;SDS011;4324;42.012;24.872;2022-11-20T05:27:45;36.20;;;22.47;;
8572;SDS011;4324;42.012;24.872;2022-11-20T05:30:12;29.70;;;21.30;;
8572;SDS011;4324;42.012;24.872;2022-11-20T05:32:40;26.37;;;22.53;;
8572;SDS011;4324;42.012;24.872;2022-11-20T05:35:09;28.73;;;22.27;;
8572;SDS011;4324;42.012;24.872;2022-11-20T05:37:36;35.63;;;25.60;;
8572;SDS011;4324;42.012;24.872;2022-11-20T05:40:03;30.93;;;21.27;;
8572;SDS011;4324;42.012;24.872;2022-11-20T05:42:30;26.30;;;18.80;;
8572;SDS011;4324;42.012;24.872;2022-11-20T05:44:58;29.47;;;20.03;;
8572;SDS011;4324;42.012;24.872;2022-11-20T05:47:25;30.83;;;21.57;;
8572;SDS011;4324;42.012;24.872;2022-11-20T05:49:53;23.77;;;21.20;;
8572;SDS011;4324;42.012;24.872;2022-11-20T05:52:22;29.60;;;21.07;;
8572;SDS011;4324;42.012;24.872;2022-11-20T05:54:49;24.47;;;20.40;;
8572;SDS011;4324;42.012;24.872;2022-11-20T05:57:18;23.67;;;20.07;;
8572;SDS011;4324;42.012;24.872;2022-11-20T05:59:45;22.80;;;19.67;;
8572;SDS011;4324;42.012;24.872;2022-11-20T06:02:12;24.53;;;19.20;;
8572;SDS011;4324;42.012;24.872;2022-11-20T06:04:39;28.43;;;23.23;;
8572;SDS011;4324;42.012;24.872;2022-11-20T06:07:06;30.50;;;22.93;;
8572;SDS011;4324;42.012;24.872;2022-11-20T06:09:35;22.30;;;16.77;;
8572;SDS011;4324;42.012;24.872;2022-11-20T06:12:02;22.63;;;16.13;;
8572;SDS011;4324;42.012;24.872;2022-11-20T06:14:29;24.07;;;16.90;;
8572;SDS011;4324;42.012;24.872;2022-11-20T06:16:56;20.07;;;17.17;;
8572;SDS011;4324;42.012;24.872;2022-11-20T06:19:23;20.37;;;15.80;;
8572;SDS011;4324;42.012;24.872;2022-11-20T06:21:50;18.47;;;15.93;;
8572;SDS011;4324;42.012;24.872;2022-11-20T06:24:17;20.23;;;18.10;;
8572;SDS011;4324;42.012;24.872;2022-11-20T06:26:46;23.10;;;18.13;;
8572;SDS011;4324;42.012;24.872;2022-11-20T06:29:13;23.83;;;17.07;;
8572;SDS011;4324;42.012;24.872;2022-11-20T06:31:40;23.97;;;18.03;;
8572;SDS011;4324;42.012;24.872;2022-11-20T06:34:07;24.80;;;19.37;;
8572;SDS011;4324;42.012;24.872;2022-11-20T06:36:35;22.37;;;16.53;;
8572;SDS011;4324;42.012;24.872;2022-11-20T06:39:02;17.57;;;13.67;;
8572;SDS011;4324;42.012;24.872;2022-11-20T06:41:29;22.90;;;15.33;;
8572;SDS011;4324;42.012;24.872;2022-11-20T06:43:57;22.60;;;15.10;;
8572;SDS011;4324;42.012;24.872;2022-11-20T06:46:24;20.40;;;12.00;;
8572;SDS011;4324;42.012;24.872;2022-11-20T06:48:52;9.80;;;8.13;;
8572;SDS011;4324;42.012;24.872;2022-11-20T06:51:19;15.47;;;10.00;;
8572;SDS011;4324;42.012;24.872;2022-11-20T06:53:46;17.40;;;10.80;;
8572;SDS011;4324;42.012;24.872;2022-11-20T06:56:14;10.87;;;8.60;;
8572;SDS011;4324;42.012;24.872;2022-11-20T06:58:40;17.43;;;12.37;;
8572;SDS011;4324;42.012;24.872;2022-11-20T07:01:12;12.60;;;10.17;;
8572;SDS011;4324;42.012;24.872;2022-11-20T07:03:40;12.83;;;7.63;;
8572;SDS011;4324;42.012;24.872;2022-11-20T07:06:08;13.70;;;8.13;;
8572;SDS011;4324;42.012;24.872;2022-11-20T07:08:36;9.70;;;8.53;;
8572;SDS011;4324;42.012;24.872;2022-11-20T07:11:04;13.40;;;9.47;;
8572;SDS011;4324;42.012;24.872;2022-11-20T07:13:32;16.53;;;7.70;;
8572;SDS011;4324;42.012;24.872;2022-11-20T07:16:00;8.33;;;6.40;;
8572;SDS011;4324;42.012;24.872;2022-11-20T07:18:29;8.53;;;4.70;;
8572;SDS011;4324;42.012;24.872;2022-11-20T07:20:59;7.33;;;5.20;;
8572;SDS011;4324;42.012;24.872;2022-11-20T07:23:27;7.63;;;4.90;;
8572;SDS011;4324;42.012;24.872;2022-11-20T07:25:54;7.13;;;5.40;;
8572;SDS011;4324;42.012;24.872;2022-11-20T07:28:21;7.73;;;5.03;;
8572;SDS011;4324;42.012;24.872;2022-11-20T07:30:51;9.77;;;5.97;;
8572;SDS011;4324;42.012;24.872;2022-11-20T07:33:18;9.20;;;7.50;;
8572;SDS011;4324;42.012;24.872;2022-11-20T07:35:47;10.23;;;5.20;;
8572;SDS011;4324;42.012;24.872;2022-11-20T07:38:14;8.13;;;5.07;;
8572;SDS011;4324;42.012;24.872;2022-11-20T07:40:41;10.13;;;5.13;;
8572;SDS011;4324;42.012;24.872;2022-11-20T07:43:08;11.23;;;6.93;;
8572;SDS011;4324;42.012;24.872;2022-11-20T07:45:35;14.67;;;10.83;;
8572;SDS011;4324;42.012;24.872;2022-11-20T07:48:02;15.60;;;11.80;;
8572;SDS011;4324;42.012;24.872;2022-11-20T07:50:29;20.73;;;12.07;;
8572;SDS011;4324;42.012;24.872;2022-11-20T07:53:01;19.27;;;12.67;;
8572;SDS011;4324;42.012;24.872;2022-11-20T07:55:29;18.53;;;13.00;;
8572;SDS011;4324;42.012;24.872;2022-11-20T07:57:56;14.87;;;11.93;;
8572;SDS011;4324;42.012;24.872;2022-11-20T08:00:24;22.20;;;13.20;;
8572;SDS011;4324;42.012;24.872;2022-11-20T08:02:52;15.30;;;13.33;;
8572;SDS011;4324;42.012;24.872;2022-11-20T08:05:19;18.17;;;14.67;;
8572;SDS011;4324;42.012;24.872;2022-11-20T08:07:46;24.37;;;16.30;;
8572;SDS011;4324;42.012;24.872;2022-11-20T08:10:15;23.87;;;15.50;;
8572;SDS011;4324;42.012;24.872;2022-11-20T08:12:46;25.10;;;16.40;;
8572;SDS011;4324;42.012;24.872;2022-11-20T08:15:32;18.80;;;13.87;;
8572;SDS011;4324;42.012;24.872;2022-11-20T08:17:59;14.30;;;12.63;;
8572;SDS011;4324;42.012;24.872;2022-11-20T08:20:28;16.97;;;12.83;;
8572;SDS011;4324;42.012;24.872;2022-11-20T08:22:58;13.67;;;12.17;;
8572;SDS011;4324;42.012;24.872;2022-11-20T08:25:28;19.47;;;12.70;;
8572;SDS011;4324;42.012;24.872;2022-11-20T08:27:57;15.87;;;11.03;;
8572;SDS011;4324;42.012;24.872;2022-11-20T08:30:24;16.80;;;11.43;;
8572;SDS011;4324;42.012;24.872;2022-11-20T08:32:51;17.27;;;12.40;;
8572;SDS011;4324;42.012;24.872;2022-11-20T08:35:18;19.27;;;13.27;;
8572;SDS011;4324;42.012;24.872;2022-11-20T08:37:45;17.80;;;12.53;;
8572;SDS011;4324;42.012;24.872;2022-11-20T08:40:13;16.60;;;11.37;;
8572;SDS011;4324;42.012;24.872;2022-11-20T08:42:46;16.47;;;10.47;;
8572;SDS011;4324;42.012;24.872;2022-11-20T08:45:15;13.30;;;11.10;;
8572;SDS011;4324;42.012;24.872;2022-11-20T08:47:42;17.57;;;12.50;;
8572;SDS011;4324;42.012;24.872;2022-11-20T08:50:10;15.10;;;10.47;;
8572;SDS011;4324;42.012;24.872;2022-11-20T08:52:38;13.47;;;10.07;;
8572;SDS011;4324;42.012;24.872;2022-11-20T08:55:05;12.47;;;8.97;;
8572;SDS011;4324;42.012;24.872;2022-11-20T08:57:33;14.77;;;9.77;;
8572;SDS011;4324;42.012;24.872;2022-11-20T09:00:02;12.33;;;9.53;;
8572;SDS011;4324;42.012;24.872;2022-11-20T09:02:30;12.63;;;10.70;;
8572;SDS011;4324;42.012;24.872;2022-11-20T09:04:57;17.83;;;12.97;;
8572;SDS011;4324;42.012;24.872;2022-11-20T09:07:25;16.57;;;12.43;;
8572;SDS011;4324;42.012;24.872;2022-11-20T09:09:52;15.47;;;11.03;;
8572;SDS011;4324;42.012;24.872;2022-11-20T09:12:19;12.83;;;10.87;;
8572;SDS011;4324;42.012;24.872;2022-11-20T09:14:46;15.70;;;11.10;;
8572;SDS011;4324;42.012;24.872;2022-11-20T09:17:14;16.23;;;11.77;;
8572;SDS011;4324;42.012;24.872;2022-11-20T09:19:41;15.43;;;11.23;;
8572;SDS011;4324;42.012;24.872;2022-11-20T09:22:08;18.40;;;11.47;;
8572;SDS011;4324;42.012;24.872;2022-11-20T09:24:35;16.50;;;10.43;;
8572;SDS011;4324;42.012;24.872;2022-11-20T09:27:03;20.27;;;10.97;;
8572;SDS011;4324;42.012;24.872;2022-11-20T09:29:30;11.50;;;10.20;;
8572;SDS011;4324;42.012;24.872;2022-11-20T09:31:57;16.47;;;10.67;;
8572;SDS011;4324;42.012;24.872;2022-11-20T09:34:26;15.53;;;9.40;;
8572;SDS011;4324;42.012;24.872;2022-11-20T09:36:53;11.50;;;7.67;;
8572;SDS011;4324;42.012;24.872;2022-11-20T09:39:20;14.03;;;9.00;;
8572;SDS011;4324;42.012;24.872;2022-11-20T09:42:01;11.97;;;7.90;;
8572;SDS011;4324;42.012;24.872;2022-11-20T09:44:47;10.40;;;6.93;;
8572;SDS011;4324;42.012;24.872;2022-11-20T09:47:24;8.67;;;6.53;;
8572;SDS011;4324;42.012;24.872;2022-11-20T09:50:12;10.43;;;7.27;;
8572;SDS011;4324;42.012;24.872;2022-11-20T09:52:53;8.90;;;6.13;;
8572;SDS011;4324;42.012;24.872;2022-11-20T09:55:31;17.80;;;10.00;;
8572;SDS011;4324;42.012;24.872;2022-11-20T09:57:59;14.53;;;9.33;;
8572;SDS011;4324;42.012;24.872;2022-11-20T10:00:26;14.10;;;10.33;;
8572;SDS011;4324;42.012;24.872;2022-11-20T10:02:55;13.73;;;8.87;;
8572;SDS011;4324;42.012;24.872;2022-11-20T10:05:30;11.63;;;7.80;;
8572;SDS011;4324;42.012;24.872;2022-11-20T10:08:04;12.90;;;8.43;;
8572;SDS011;4324;42.012;24.872;2022-11-20T10:10:40;16.47;;;9.43;;
8572;SDS011;4324;42.012;24.872;2022-11-20T10:13:16;18.90;;;10.27;;
8572;SDS011;4324;42.012;24.872;2022-11-20T10:15:57;16.87;;;10.00;;
8572;SDS011;4324;42.012;24.872;2022-11-20T10:18:41;12.77;;;7.60;;
8572;SDS011;4324;42.012;24.872;2022-11-20T10:21:25;13.27;;;6.70;;
8572;SDS011;4324;42.012;24.872;2022-11-20T10:24:12;15.33;;;8.23;;
8572;SDS011;4324;42.012;24.872;2022-11-20T10:27:01;15.50;;;8.93;;
8572;SDS011;4324;42.012;24.872;2022-11-20T10:29:36;15.77;;;8.23;;
8572;SDS011;4324;42.012;24.872;2022-11-20T10:32:09;10.37;;;7.30;;
8572;SDS011;4324;42.012;24.872;2022-11-20T10:34:43;12.73;;;6.13;;
8572;SDS011;4324;42.012;24.872;2022-11-20T10:37:16;14.53;;;8.40;;
8572;SDS011;4324;42.012;24.872;2022-11-20T10:39:49;17.10;;;10.77;;
8572;SDS011;4324;42.012;24.872;2022-11-20T10:42:26;17.90;;;9.73;;
8572;SDS011;4324;42.012;24.872;2022-11-20T10:44:59;17.53;;;9.20;;
8572;SDS011;4324;42.012;24.872;2022-11-20T10:47:36;14.47;;;6.93;;
8572;SDS011;4324;42.012;24.872;2022-11-20T10:50:04;10.90;;;6.27;;
8572;SDS011;4324;42.012;24.872;2022-11-20T10:52:39;11.67;;;6.00;;
8572;SDS011;4324;42.012;24.872;2022-11-20T10:55:21;13.77;;;5.07;;
8572;SDS011;4324;42.012;24.872;2022-11-20T10:57:58;6.73;;;3.90;;
8572;SDS011;4324;42.012;24.872;2022-11-20T11:00:32;14.13;;;7.60;;
8572;SDS011;4324;42.012;24.872;2022-11-20T11:02:59;13.13;;;6.30;;
8572;SDS011;4324;42.012;24.872;2022-11-20T11:05:33;12.43;;;6.97;;
8572;SDS011;4324;42.012;24.872;2022-11-20T11:08:07;8.37;;;5.57;;
8572;SDS011;4324;42.012;24.872;2022-11-20T11:10:39;10.27;;;5.53;;
8572;SDS011;4324;42.012;24.872;2022-11-20T11:13:19;11.73;;;4.97;;
8572;SDS011;4324;42.012;24.872;2022-11-20T11:15:46;10.30;;;4.00;;
8572;SDS011;4324;42.012;24.872;2022-11-20T11:18:22;10.13;;;4.90;;
8572;SDS011;4324;42.012;24.872;2022-11-20T11:20:50;8.63;;;4.37;;
8572;SDS011;4324;42.012;24.872;2022-11-20T11:23:26;10.90;;;4.57;;
8572;SDS011;4324;42.012;24.872;2022-11-20T11:25:58;15.10;;;4.80;;
8572;SDS011;4324;42.012;24.872;2022-11-20T11:28:26;8.00;;;3.27;;
8572;SDS011;4324;42.012;24.872;2022-11-20T11:30:53;9.20;;;3.17;;
8572;SDS011;4324;42.012;24.872;2022-11-20T11:33:22;9.33;;;4.17;;
8572;SDS011;4324;42.012;24.872;2022-11-20T11:35:50;7.40;;;3.13;;
8572;SDS011;4324;42.012;24.872;2022-11-20T11:38:23;7.50;;;3.33;;
8572;SDS011;4324;42.012;24.872;2022-11-20T11:40:59;8.17;;;3.67;;
8572;SDS011;4324;42.012;24.872;2022-11-20T11:43:28;7.87;;;3.50;;
8572;SDS011;4324;42.012;24.872;2022-11-20T11:46:23;7.10;;;3.63;;
8572;SDS011;4324;42.012;24.872;2022-11-20T11:48:54;7.57;;;3.87;;
8572;SDS011;4324;42.012;24.872;2022-11-20T11:51:23;9.40;;;3.27;;
8572;SDS011;4324;42.012;24.872;2022-11-20T11:53:55;7.70;;;3.57;;
8572;SDS011;4324;42.012;24.872;2022-11-20T11:56:24;8.40;;;3.63;;
8572;SDS011;4324;42.012;24.872;2022-11-20T11:58:53;11.33;;;3.20;;
8572;SDS011;4324;42.012;24.872;2022-11-20T12:01:28;11.97;;;3.07;;
8572;SDS011;4324;42.012;24.872;2022-11-20T12:04:00;13.03;;;3.17;;
8572;SDS011;4324;42.012;24.872;2022-11-20T12:06:31;10.40;;;3.40;;
8572;SDS011;4324;42.012;24.872;2022-11-20T12:09:04;10.33;;;3.93;;
8572;SDS011;4324;42.012;24.872;2022-11-20T12:11:35;7.40;;;4.03;;
8572;SDS011;4324;42.012;24.872;2022-11-20T12:14:10;9.13;;;3.43;;
8572;SDS011;4324;42.012;24.872;2022-11-20T12:16:41;7.40;;;3.67;;
8572;SDS011;4324;42.012;24.872;2022-11-20T12:19:10;8.93;;;4.03;;
8572;SDS011;4324;42.012;24.872;2022-11-20T12:21:42;10.40;;;4.37;;
8572;SDS011;4324;42.012;24.872;2022-11-20T12:27:16;10.50;;;5.07;;
8572;SDS011;4324;42.012;24.872;2022-11-20T12:30:07;7.30;;;4.53;;
8572;SDS011;4324;42.012;24.872;2022-11-20T12:32:48;10.87;;;4.43;;
8572;SDS011;4324;42.012;24.872;2022-11-20T12:35:39;11.03;;;4.60;;
8572;SDS011;4324;42.012;24.872;2022-11-20T12:38:23;9.50;;;4.37;;
8572;SDS011;4324;42.012;24.872;2022-11-20T12:41:02;8.20;;;3.20;;
8572;SDS011;4324;42.012;24.872;2022-11-20T12:43:39;10.93;;;3.23;;
8572;SDS011;4324;42.012;24.872;2022-11-20T12:46:30;13.67;;;3.63;;
8572;SDS011;4324;42.012;24.872;2022-11-20T12:49:12;12.00;;;3.63;;
8572;SDS011;4324;42.012;24.872;2022-11-20T12:51:56;7.77;;;3.23;;
8572;SDS011;4324;42.012;24.872;2022-11-20T12:54:40;11.87;;;3.03;;
8572;SDS011;4324;42.012;24.872;2022-11-20T12:57:24;13.23;;;4.40;;
8572;SDS011;4324;42.012;24.872;2022-11-20T13:00:12;11.90;;;4.40;;
8572;SDS011;4324;42.012;24.872;2022-11-20T13:02:46;10.57;;;5.83;;
8572;SDS011;4324;42.012;24.872;2022-11-20T13:05:37;10.83;;;4.50;;
8572;SDS011;4324;42.012;24.872;2022-11-20T13:08:13;8.83;;;4.20;;
8572;SDS011;4324;42.012;24.872;2022-11-20T13:10:47;10.23;;;3.80;;
8572;SDS011;4324;42.012;24.872;2022-11-20T13:13:21;7.00;;;3.67;;
8572;SDS011;4324;42.012;24.872;2022-11-20T13:15:55;9.53;;;4.23;;
8572;SDS011;4324;42.012;24.872;2022-11-20T13:18:26;13.80;;;4.20;;
8572;SDS011;4324;42.012;24.872;2022-11-20T13:20:56;10.03;;;3.97;;
8572;SDS011;4324;42.012;24.872;2022-11-20T13:23:23;10.93;;;3.80;;
8572;SDS011;4324;42.012;24.872;2022-11-20T13:26:02;12.37;;;3.80;;
8572;SDS011;4324;42.012;24.872;2022-11-20T13:28:32;11.23;;;3.77;;
8572;SDS011;4324;42.012;24.872;2022-11-20T13:30:59;14.20;;;4.53;;
8572;SDS011;4324;42.012;24.872;2022-11-20T13:33:28;6.33;;;2.70;;
8572;SDS011;4324;42.012;24.872;2022-11-20T13:35:57;6.83;;;3.17;;
8572;SDS011;4324;42.012;24.872;2022-11-20T13:38:26;7.87;;;3.20;;
8572;SDS011;4324;42.012;24.872;2022-11-20T13:40:54;11.87;;;4.80;;
8572;SDS011;4324;42.012;24.872;2022-11-20T13:43:26;10.60;;;2.60;;
8572;SDS011;4324;42.012;24.872;2022-11-20T13:46:02;11.77;;;2.70;;
8572;SDS011;4324;42.012;24.872;2022-11-20T13:48:31;8.73;;;3.23;;
8572;SDS011;4324;42.012;24.872;2022-11-20T13:51:03;6.37;;;2.60;;
8572;SDS011;4324;42.012;24.872;2022-11-20T13:56:34;9.27;;;3.10;;
8572;SDS011;4324;42.012;24.872;2022-11-20T13:59:19;6.37;;;3.47;;
8572;SDS011;4324;42.012;24.872;2022-11-20T14:02:01;8.70;;;3.27;;
8572;SDS011;4324;42.012;24.872;2022-11-20T14:04:29;8.80;;;2.70;;
8572;SDS011;4324;42.012;24.872;2022-11-20T14:06:59;6.73;;;2.60;;
8572;SDS011;4324;42.012;24.872;2022-11-20T14:09:28;10.63;;;2.93;;
8572;SDS011;4324;42.012;24.872;2022-11-20T14:11:56;8.83;;;2.57;;
8572;SDS011;4324;42.012;24.872;2022-11-20T14:14:23;9.80;;;4.10;;
8572;SDS011;4324;42.012;24.872;2022-11-20T14:16:52;8.07;;;3.50;;
8572;SDS011;4324;42.012;24.872;2022-11-20T14:19:32;6.30;;;2.70;;
8572;SDS011;4324;42.012;24.872;2022-11-20T14:22:07;9.43;;;3.27;;
8572;SDS011;4324;42.012;24.872;2022-11-20T14:24:44;8.30;;;1.97;;
8572;SDS011;4324;42.012;24.872;2022-11-20T14:27:14;7.90;;;2.70;;
8572;SDS011;4324;42.012;24.872;2022-11-20T14:29:43;8.27;;;3.10;;
8572;SDS011;4324;42.012;24.872;2022-11-20T14:32:14;11.83;;;4.80;;
8572;SDS011;4324;42.012;24.872;2022-11-20T14:34:44;17.50;;;10.03;;
8572;SDS011;4324;42.012;24.872;2022-11-20T14:37:17;9.10;;;3.60;;
8572;SDS011;4324;42.012;24.872;2022-11-20T14:39:48;7.70;;;3.03;;
8572;SDS011;4324;42.012;24.872;2022-11-20T14:42:17;5.60;;;2.60;;
8572;SDS011;4324;42.012;24.872;2022-11-20T14:44:46;10.53;;;4.03;;
8572;SDS011;4324;42.012;24.872;2022-11-20T14:47:15;9.00;;;3.97;;
8572;SDS011;4324;42.012;24.872;2022-11-20T14:49:46;8.50;;;2.60;;
8572;SDS011;4324;42.012;24.872;2022-11-20T14:52:15;9.27;;;5.57;;
8572;SDS011;4324;42.012;24.872;2022-11-20T14:54:44;7.83;;;3.63;;
8572;SDS011;4324;42.012;24.872;2022-11-20T14:57:23;7.30;;;3.20;;
8572;SDS011;4324;42.012;24.872;2022-11-20T14:59:51;5.23;;;2.40;;
8572;SDS011;4324;42.012;24.872;2022-11-20T15:02:31;7.47;;;3.37;;
8572;SDS011;4324;42.012;24.872;2022-11-20T15:05:10;5.60;;;2.27;;
8572;SDS011;4324;42.012;24.872;2022-11-20T15:07:38;4.73;;;1.60;;
8572;SDS011;4324;42.012;24.872;2022-11-20T15:10:11;4.43;;;2.17;;
8572;SDS011;4324;42.012;24.872;2022-11-20T15:12:40;4.53;;;2.17;;